Time;durP1;ratioP1;P1;durP2;ratioP2;P2;SDS_P1;SDS_P2;PMS_P1;PMS_P2;Temp;Humidity;BMP_temperature;BMP_pressure;BME280_temperature;BME280_humidity;BME280_pressure;Samples;Min_cycle;Max_cycle;Signal;HPM_P1;HPM_P2
2022/07/25 00:00:12;;;;;;;8.00;7.18;;;20.90;99.90;;;;;;5114967;27;20079;-68
2022/07/25 00:02:38;;;;;;;8.25;7.50;;;20.70;99.90;;;;;;5123651;27;20557;-68
2022/07/25 00:05:05;;;;;;;8.15;7.35;;;20.70;99.90;;;;;;5123574;27;20104;-69
2022/07/25 00:07:36;;;;;;;9.50;8.05;;;20.70;99.90;;;;;;5127687;27;20054;-68
2022/07/25 00:10:03;;;;;;;8.68;7.88;;;20.70;99.90;;;;;;5126554;27;20045;-68
2022/07/25 00:12:29;;;;;;;9.90;8.55;;;20.60;99.90;;;;;;5117142;27;20050;-68
2022/07/25 00:14:55;;;;;;;12.90;8.25;;;20.50;99.90;;;;;;5128310;27;20051;-68
2022/07/25 00:17:20;;;;;;;8.73;7.90;;;20.50;99.90;;;;;;5123260;27;20039;-68
2022/07/25 00:19:46;;;;;;;10.65;7.20;;;20.50;99.90;;;;;;5123772;27;20153;-68
2022/07/25 00:22:12;;;;;;;8.00;7.30;;;20.50;99.90;;;;;;5127502;27;20038;-68
2022/07/25 00:24:38;;;;;;;8.70;7.38;;;20.50;99.90;;;;;;5127272;27;20107;-68
2022/07/25 00:27:03;;;;;;;8.88;8.02;;;20.50;99.90;;;;;;5129241;27;20141;-68
2022/07/25 00:29:29;;;;;;;12.73;11.02;;;20.40;99.90;;;;;;5122899;27;20050;-68
2022/07/25 00:31:55;;;;;;;12.60;11.23;;;20.30;99.90;;;;;;5129271;27;20500;-68
2022/07/25 00:34:21;;;;;;;12.00;10.77;;;20.30;99.90;;;;;;5125247;27;20453;-68
2022/07/25 00:36:47;;;;;;;11.82;10.57;;;20.30;99.90;;;;;;5117132;27;20059;-68
2022/07/25 00:39:13;;;;;;;10.18;9.15;;;20.30;99.90;;;;;;5116569;27;20067;-68
2022/07/25 00:41:39;;;;;;;14.75;9.90;;;20.30;99.90;;;;;;5122077;27;20066;-68
2022/07/25 00:44:05;;;;;;;14.10;12.68;;;20.20;99.90;;;;;;5119239;27;20047;-68
2022/07/25 00:46:30;;;;;;;14.50;12.60;;;20.20;99.90;;;;;;5110297;27;20035;-68
2022/07/25 00:48:56;;;;;;;16.33;14.63;;;20.10;99.90;;;;;;5118488;27;20399;-68
2022/07/25 00:51:22;;;;;;;16.08;14.40;;;20.20;99.90;;;;;;5139687;27;20487;-68
2022/07/25 00:53:47;;;;;;;20.85;16.67;;;20.10;99.90;;;;;;5119114;27;20047;-68
2022/07/25 00:56:15;;;;;;;19.17;17.25;;;20.10;99.90;;;;;;5119029;27;20403;-68
2022/07/25 00:58:41;;;;;;;19.15;16.90;;;20.00;99.90;;;;;;5143690;27;20474;-68
2022/07/25 01:01:10;;;;;;;25.08;17.88;;;20.00;99.90;;;;;;5129442;27;20050;-68
2022/07/25 01:03:35;;;;;;;18.60;16.73;;;20.00;99.90;;;;;;5132304;27;20131;-68
2022/07/25 01:06:01;;;;;;;18.30;16.50;;;20.00;99.90;;;;;;5149423;27;20074;-68
2022/07/25 01:08:28;;;;;;;20.98;18.77;;;20.00;99.90;;;;;;5146438;27;20376;-68
2022/07/25 01:10:53;;;;;;;19.65;17.42;;;20.00;99.90;;;;;;5139092;27;20039;-68
2022/07/25 01:13:19;;;;;;;25.95;19.88;;;19.90;99.90;;;;;;5124228;27;20441;-68
2022/07/25 01:15:45;;;;;;;17.48;15.73;;;19.90;99.90;;;;;;5129113;27;20035;-68
2022/07/25 01:18:10;;;;;;;17.83;15.98;;;20.00;99.90;;;;;;5129393;27;20043;-68
2022/07/25 01:20:36;;;;;;;17.67;15.30;;;20.00;99.90;;;;;;5123487;27;20039;-68
2022/07/25 01:23:02;;;;;;;22.23;17.90;;;19.90;99.90;;;;;;5140322;27;20099;-68
2022/07/25 01:25:27;;;;;;;20.73;18.55;;;19.90;99.90;;;;;;5112323;27;20150;-68
2022/07/25 01:27:54;;;;;;;22.40;19.35;;;19.90;99.90;;;;;;5142896;27;20039;-68
2022/07/25 01:30:21;;;;;;;21.90;19.60;;;19.80;99.90;;;;;;5121378;27;20047;-68
2022/07/25 01:32:47;;;;;;;23.20;20.83;;;19.80;99.90;;;;;;5146311;27;20110;-68
2022/07/25 01:35:13;;;;;;;23.08;20.35;;;19.80;99.90;;;;;;5141862;27;20456;-68
2022/07/25 01:37:40;;;;;;;21.20;19.17;;;19.70;99.90;;;;;;5121275;27;20078;-68
2022/07/25 01:40:07;;;;;;;23.52;20.63;;;19.70;99.90;;;;;;5115086;28;20071;-68
2022/07/25 01:42:33;;;;;;;25.05;19.67;;;19.70;99.90;;;;;;5123163;27;20042;-68
2022/07/25 01:44:59;;;;;;;28.25;22.98;;;19.70;99.90;;;;;;5137362;27;20039;-68
2022/07/25 01:47:25;;;;;;;28.48;23.42;;;19.60;99.90;;;;;;5116931;28;20075;-68
2022/07/25 01:49:51;;;;;;;28.83;22.77;;;19.60;99.90;;;;;;5142832;27;20128;-68
2022/07/25 01:52:16;;;;;;;24.23;21.67;;;19.60;99.90;;;;;;5123888;27;20036;-68
2022/07/25 01:54:42;;;;;;;25.17;22.55;;;19.50;99.90;;;;;;5137870;27;20115;-68
2022/07/25 01:57:09;;;;;;;25.48;22.42;;;19.50;99.90;;;;;;5105731;28;20438;-68
2022/07/25 01:59:39;;;;;;;31.33;24.90;;;19.50;99.90;;;;;;5106860;28;20763;-68
2022/07/25 02:02:06;;;;;;;26.75;21.80;;;19.50;99.90;;;;;;5102806;28;20051;-68
2022/07/25 02:04:32;;;;;;;24.63;21.48;;;19.40;99.90;;;;;;5099360;28;20553;-68
2022/07/25 02:06:58;;;;;;;20.55;18.42;;;19.40;99.90;;;;;;5104099;28;20035;-68
2022/07/25 02:09:23;;;;;;;21.17;18.92;;;19.40;99.90;;;;;;5104774;28;20047;-68
2022/07/25 02:11:49;;;;;;;23.30;19.80;;;19.40;99.90;;;;;;5093962;28;20054;-68
2022/07/25 02:14:14;;;;;;;20.08;17.85;;;19.40;99.90;;;;;;5101511;28;20043;-68
2022/07/25 02:16:40;;;;;;;18.45;16.55;;;19.40;99.90;;;;;;5091170;28;20068;-68
2022/07/25 02:19:06;;;;;;;19.33;17.25;;;19.40;99.90;;;;;;5103525;28;20062;-68
2022/07/25 02:21:31;;;;;;;20.55;18.40;;;19.40;99.90;;;;;;5108089;28;20526;-68
2022/07/25 02:23:57;;;;;;;23.52;17.75;;;19.40;99.90;;;;;;5097664;28;20055;-68
2022/07/25 02:26:22;;;;;;;31.52;25.40;;;19.40;99.90;;;;;;5102069;28;20421;-68
2022/07/25 02:28:49;;;;;;;25.00;22.50;;;19.30;99.90;;;;;;5099084;28;20036;-68
2022/07/25 02:31:14;;;;;;;26.73;18.52;;;19.30;99.90;;;;;;5112898;27;20047;-68
2022/07/25 02:33:41;;;;;;;19.83;17.67;;;19.30;99.90;;;;;;5108927;28;20051;-68
2022/07/25 02:36:08;;;;;;;24.10;17.40;;;19.30;99.90;;;;;;5108322;28;20047;-68
2022/07/25 02:38:34;;;;;;;22.58;18.80;;;19.30;99.90;;;;;;5109817;28;20043;-68
2022/07/25 02:40:59;;;;;;;21.60;18.88;;;19.30;99.90;;;;;;5107608;28;20488;-68
2022/07/25 02:43:25;;;;;;;21.08;18.65;;;19.30;99.90;;;;;;5105088;28;20051;-68
2022/07/25 02:45:51;;;;;;;20.30;17.60;;;19.30;99.90;;;;;;5098514;28;20527;-68
2022/07/25 02:48:17;;;;;;;20.40;18.25;;;19.20;99.90;;;;;;5110351;28;20027;-68
2022/07/25 02:50:43;;;;;;;18.65;16.67;;;19.20;99.90;;;;;;5107679;28;20044;-68
2022/07/25 02:53:09;;;;;;;20.13;18.05;;;19.20;99.90;;;;;;5102631;28;20512;-68
2022/07/25 02:55:35;;;;;;;20.42;18.23;;;19.20;99.90;;;;;;5101649;28;20036;-68
2022/07/25 02:58:01;;;;;;;19.15;17.35;;;19.20;99.90;;;;;;5124797;27;20070;-68
2022/07/25 03:00:27;;;;;;;20.80;17.25;;;19.10;99.90;;;;;;5150372;27;20057;-68
2022/07/25 03:02:53;;;;;;;20.52;18.45;;;19.10;99.90;;;;;;5146126;27;20098;-68
2022/07/25 03:05:19;;;;;;;22.95;19.90;;;19.10;99.90;;;;;;5136841;27;20444;-68
2022/07/25 03:07:45;;;;;;;20.67;18.58;;;19.00;99.90;;;;;;5141627;27;20039;-68
2022/07/25 03:10:12;;;;;;;20.10;17.83;;;19.00;99.90;;;;;;5142838;27;20069;-68
2022/07/25 03:12:38;;;;;;;26.10;20.55;;;19.00;99.90;;;;;;5138506;27;20046;-68
2022/07/25 03:15:06;;;;;;;28.88;23.40;;;18.90;99.90;;;;;;5138811;27;20568;-68
2022/07/25 03:17:31;;;;;;;29.70;25.42;;;18.90;99.90;;;;;;5139940;27;20081;-68
2022/07/25 03:19:57;;;;;;;30.02;26.70;;;18.90;99.90;;;;;;5148145;27;20085;-68
2022/07/25 03:22:23;;;;;;;30.70;26.98;;;18.80;99.90;;;;;;5117578;27;20043;-68
2022/07/25 03:24:50;;;;;;;44.80;29.85;;;18.80;99.90;;;;;;5137518;27;20043;-68
2022/07/25 03:27:16;;;;;;;26.48;22.25;;;18.90;99.90;;;;;;5152221;27;20050;-68
2022/07/25 03:29:41;;;;;;;25.05;21.08;;;18.90;99.90;;;;;;5148905;27;20107;-68
2022/07/25 03:32:08;;;;;;;22.88;20.67;;;18.90;99.90;;;;;;5151441;27;20035;-68
2022/07/25 03:34:34;;;;;;;25.35;22.60;;;18.80;99.90;;;;;;5145448;27;20432;-68
2022/07/25 03:37:00;;;;;;;24.17;21.83;;;18.80;99.90;;;;;;5132660;27;20054;-68
2022/07/25 03:39:26;;;;;;;23.15;20.85;;;18.80;99.90;;;;;;5127868;27;20525;-68
2022/07/25 03:41:53;;;;;;;29.80;22.23;;;18.80;99.90;;;;;;5139632;27;20495;-68
2022/07/25 03:44:20;;;;;;;24.45;20.17;;;18.80;99.90;;;;;;5127199;27;20139;-68
2022/07/25 03:46:45;;;;;;;27.00;21.25;;;18.80;99.90;;;;;;5107629;27;20506;-68
2022/07/25 03:49:11;;;;;;;27.42;23.02;;;18.80;99.90;;;;;;5131705;27;20039;-68
2022/07/25 03:51:37;;;;;;;26.33;21.70;;;18.70;99.90;;;;;;5142675;27;20426;-68
2022/07/25 03:54:04;;;;;;;24.27;21.75;;;18.70;99.90;;;;;;5149350;27;20043;-68
2022/07/25 03:56:45;;;;;;;25.95;23.23;;;18.70;99.90;;;;;;5150402;27;20038;-68
2022/07/25 03:59:16;;;;;;;31.90;26.63;;;18.60;99.90;;;;;;5145142;27;20091;-68
2022/07/25 04:01:43;;;;;;;27.98;23.33;;;18.60;99.90;;;;;;5128832;27;20142;-68
2022/07/25 04:04:09;;;;;;;29.08;25.80;;;18.60;99.90;;;;;;5137996;27;20183;-67
2022/07/25 04:06:36;;;;;;;32.30;27.83;;;18.60;99.90;;;;;;5139787;27;20047;-68
2022/07/25 04:09:02;;;;;;;26.73;23.88;;;18.60;99.90;;;;;;5143221;27;20114;-68
2022/07/25 04:11:29;;;;;;;30.67;27.50;;;18.60;99.90;;;;;;5144560;27;20701;-68
2022/07/25 04:13:56;;;;;;;27.75;24.75;;;18.60;99.90;;;;;;5136234;27;20047;-68
2022/07/25 04:16:23;;;;;;;37.47;25.25;;;18.60;99.90;;;;;;5121715;27;20592;-68
2022/07/25 04:18:49;;;;;;;35.33;27.48;;;18.60;99.90;;;;;;5147684;27;20099;-69
2022/07/25 04:21:15;;;;;;;34.33;25.55;;;18.60;99.90;;;;;;5144918;27;20046;-69
2022/07/25 04:23:41;;;;;;;28.88;26.00;;;18.60;99.90;;;;;;5141423;27;20038;-69
2022/07/25 04:26:07;;;;;;;28.00;24.95;;;18.60;99.90;;;;;;5146382;27;20043;-69
2022/07/25 04:28:32;;;;;;;31.88;28.17;;;18.80;99.90;;;;;;5137119;27;20070;-69
2022/07/25 04:30:58;;;;;;;31.45;26.10;;;19.00;99.90;;;;;;5114612;27;20100;-70
2022/07/25 04:33:24;;;;;;;30.60;26.08;;;19.20;99.90;;;;;;5144119;27;20125;-70
2022/07/25 04:35:50;;;;;;;30.08;25.70;;;19.30;99.90;;;;;;5119963;27;20050;-69
2022/07/25 04:38:16;;;;;;;30.25;26.63;;;19.30;99.90;;;;;;5143907;27;20042;-69
2022/07/25 04:40:41;;;;;;;30.42;25.33;;;19.20;99.90;;;;;;5124424;27;20394;-69
2022/07/25 04:43:07;;;;;;;30.63;27.50;;;19.20;99.90;;;;;;5142017;27;20792;-69
2022/07/25 04:45:33;;;;;;;31.67;27.05;;;19.10;99.90;;;;;;5132048;27;20118;-70
2022/07/25 04:48:00;;;;;;;30.00;27.02;;;19.10;99.90;;;;;;5150295;27;20414;-70
2022/07/25 04:50:26;;;;;;;28.58;25.50;;;19.20;99.90;;;;;;5130049;27;20085;-69
2022/07/25 04:52:51;;;;;;;29.00;25.92;;;19.30;99.90;;;;;;5147595;27;20078;-70
2022/07/25 04:55:17;;;;;;;32.72;25.70;;;19.40;99.90;;;;;;5144304;27;20042;-70
2022/07/25 04:57:43;;;;;;;31.48;26.65;;;19.50;99.90;;;;;;5143748;27;20419;-72
2022/07/25 05:00:10;;;;;;;28.02;22.92;;;19.50;99.90;;;;;;5118958;27;20130;-70
2022/07/25 05:02:36;;;;;;;26.93;22.90;;;19.60;99.90;;;;;;5148112;27;20054;-70
2022/07/25 05:05:03;;;;;;;22.77;20.33;;;19.70;99.90;;;;;;5148246;27;20042;-70
2022/07/25 05:07:28;;;;;;;24.02;21.40;;;19.90;99.90;;;;;;5129291;27;20031;-70
2022/07/25 05:09:54;;;;;;;24.38;20.05;;;20.00;99.90;;;;;;5124381;27;20715;-70
2022/07/25 05:12:20;;;;;;;21.73;19.23;;;20.10;99.90;;;;;;5148814;27;20142;-69
2022/07/25 05:14:46;;;;;;;23.50;19.35;;;20.20;99.90;;;;;;5148427;27;20543;-70
2022/07/25 05:17:11;;;;;;;25.25;21.02;;;20.40;99.90;;;;;;5139085;27;20056;-69
2022/07/25 05:19:37;;;;;;;23.55;19.95;;;20.50;99.90;;;;;;5143610;27;20770;-69
2022/07/25 05:22:03;;;;;;;23.75;19.17;;;20.60;99.90;;;;;;5148480;27;20391;-69
2022/07/25 05:24:33;;;;;;;21.77;19.20;;;20.80;99.90;;;;;;5149493;27;20039;-69
2022/07/25 05:26:58;;;;;;;22.75;19.73;;;20.90;99.90;;;;;;5146215;27;20638;-68
2022/07/25 05:29:24;;;;;;;19.38;17.17;;;20.90;99.90;;;;;;5149382;27;20163;-68
2022/07/25 05:31:50;;;;;;;21.25;19.15;;;21.00;99.90;;;;;;5122081;27;20070;-69
2022/07/25 05:34:15;;;;;;;22.45;18.33;;;21.20;99.90;;;;;;5148500;27;20058;-68
2022/07/25 05:36:41;;;;;;;30.05;21.17;;;21.30;99.90;;;;;;5149270;27;20046;-69
2022/07/25 05:39:06;;;;;;;22.20;17.92;;;21.40;99.90;;;;;;5149087;27;20781;-70
2022/07/25 05:41:32;;;;;;;21.80;19.45;;;21.40;99.90;;;;;;5144082;27;20038;-69
2022/07/25 05:43:58;;;;;;;25.40;18.33;;;21.50;99.90;;;;;;5130689;27;20088;-69
2022/07/25 05:46:23;;;;;;;23.17;18.25;;;21.60;99.90;;;;;;5131748;27;20045;-69
2022/07/25 05:48:49;;;;;;;23.48;17.40;;;21.80;99.90;;;;;;5147929;27;20121;-69
2022/07/25 05:51:15;;;;;;;22.45;16.75;;;21.80;99.90;;;;;;5129557;27;20474;-68
2022/07/25 05:53:40;;;;;;;17.63;15.75;;;21.90;99.90;;;;;;5130769;27;20057;-69
2022/07/25 05:56:08;;;;;;;21.13;17.73;;;22.00;99.90;;;;;;5134324;27;20045;-67
2022/07/25 05:58:36;;;;;;;19.13;17.33;;;22.00;99.90;;;;;;5148059;27;20055;-68
2022/07/25 06:01:01;;;;;;;21.38;17.80;;;22.10;99.90;;;;;;5146237;27;20039;-69
2022/07/25 06:03:27;;;;;;;18.90;16.88;;;22.20;99.90;;;;;;5144101;27;20046;-68
2022/07/25 06:05:54;;;;;;;20.17;17.17;;;22.20;99.90;;;;;;5123358;27;20069;-67
2022/07/25 06:08:20;;;;;;;19.73;16.55;;;22.20;99.90;;;;;;5146988;27;20050;-68
2022/07/25 06:10:46;;;;;;;19.63;16.77;;;22.30;99.90;;;;;;5153467;27;20042;-67
2022/07/25 06:13:11;;;;;;;18.73;16.83;;;22.30;99.90;;;;;;5149948;27;20090;-68
2022/07/25 06:15:37;;;;;;;20.40;18.00;;;22.30;99.90;;;;;;5142506;27;20050;-68
2022/07/25 06:18:03;;;;;;;23.80;18.40;;;22.30;99.90;;;;;;5144723;27;20039;-68
2022/07/25 06:20:28;;;;;;;19.00;16.70;;;22.40;99.90;;;;;;5147185;27;20129;-68
2022/07/25 06:22:54;;;;;;;19.88;17.70;;;22.40;99.90;;;;;;5142811;27;20030;-68
2022/07/25 06:25:20;;;;;;;22.42;16.63;;;22.50;99.90;;;;;;5144509;27;20046;-67
2022/07/25 06:27:46;;;;;;;20.60;18.40;;;22.50;99.90;;;;;;5139345;27;20039;-67
2022/07/25 06:30:12;;;;;;;22.60;17.23;;;22.60;99.90;;;;;;5147580;27;20062;-68
2022/07/25 06:32:38;;;;;;;23.88;17.75;;;22.70;99.90;;;;;;5142619;27;20078;-67
2022/07/25 06:35:04;;;;;;;18.60;16.60;;;22.80;99.90;;;;;;5131209;27;20138;-68
2022/07/25 06:37:30;;;;;;;20.95;17.73;;;22.80;99.90;;;;;;5146195;27;20031;-70
2022/07/25 06:39:55;;;;;;;19.02;16.08;;;22.90;99.90;;;;;;5140238;27;20039;-70
2022/07/25 06:42:21;;;;;;;21.13;17.50;;;23.00;99.90;;;;;;5134897;27;20460;-69
2022/07/25 06:44:46;;;;;;;19.02;17.13;;;23.10;99.90;;;;;;5132416;27;20088;-69
2022/07/25 06:47:12;;;;;;;25.73;18.23;;;23.10;99.90;;;;;;5128017;27;20130;-69
2022/07/25 06:49:41;;;;;;;24.60;17.83;;;23.20;99.90;;;;;;5145987;27;20057;-68
2022/07/25 06:52:07;;;;;;;19.40;17.02;;;23.30;99.90;;;;;;5143514;27;20482;-70
2022/07/25 06:54:34;;;;;;;20.27;16.35;;;23.50;99.90;;;;;;5151392;27;20082;-68
2022/07/25 06:57:00;;;;;;;18.30;16.50;;;23.80;99.90;;;;;;5127160;27;20050;-71
2022/07/25 06:59:25;;;;;;;21.23;16.20;;;24.00;99.90;;;;;;5140465;27;20043;-70
2022/07/25 07:01:51;;;;;;;21.70;16.63;;;24.20;99.90;;;;;;5152359;27;20110;-70
2022/07/25 07:04:17;;;;;;;19.27;17.38;;;24.40;99.90;;;;;;5126415;27;20035;-71
2022/07/25 07:06:43;;;;;;;21.70;17.55;;;24.70;99.90;;;;;;5145590;27;20039;-70
2022/07/25 07:09:09;;;;;;;18.88;17.02;;;25.00;99.90;;;;;;5135652;27;20045;-70
2022/07/25 07:11:35;;;;;;;23.65;18.42;;;25.20;99.90;;;;;;5135011;27;20548;-70
2022/07/25 07:14:01;;;;;;;18.45;16.45;;;25.40;99.90;;;;;;5149527;27;20031;-70
2022/07/25 07:16:31;;;;;;;19.60;17.60;;;25.60;99.90;;;;;;5151405;27;20039;-69
2022/07/25 07:18:57;;;;;;;18.08;16.20;;;25.80;99.90;;;;;;5136997;27;20035;-70
2022/07/25 07:21:23;;;;;;;21.25;17.58;;;26.00;99.90;;;;;;5150578;27;20406;-69
2022/07/25 07:23:49;;;;;;;22.50;18.48;;;26.00;99.90;;;;;;5134668;27;20077;-70
2022/07/25 07:26:15;;;;;;;18.55;15.60;;;25.90;99.90;;;;;;5139948;27;20043;-69
2022/07/25 07:28:41;;;;;;;21.40;18.75;;;26.10;99.90;;;;;;5139968;27;20103;-69
2022/07/25 07:31:07;;;;;;;18.65;16.75;;;26.10;99.90;;;;;;5142587;27;20039;-69
2022/07/25 07:33:33;;;;;;;17.05;15.50;;;26.20;99.90;;;;;;5149230;27;20445;-70
2022/07/25 07:35:59;;;;;;;19.92;17.30;;;26.40;99.90;;;;;;5147974;27;20042;-70
2022/07/25 07:38:25;;;;;;;17.25;15.63;;;26.50;99.90;;;;;;5145956;27;20065;-70
2022/07/25 07:40:51;;;;;;;24.00;15.60;;;26.70;99.90;;;;;;5145674;27;20066;-71
2022/07/25 07:43:17;;;;;;;18.45;16.00;;;26.70;99.90;;;;;;5144678;27;20031;-70
2022/07/25 07:45:43;;;;;;;20.05;16.63;;;26.90;99.90;;;;;;5141913;27;20034;-69
2022/07/25 07:48:09;;;;;;;21.48;19.10;;;27.10;99.90;;;;;;5145146;27;20423;-69
2022/07/25 07:50:35;;;;;;;18.60;16.70;;;27.40;99.90;;;;;;5141597;27;20042;-70
2022/07/25 07:53:01;;;;;;;34.40;17.20;;;27.50;99.90;;;;;;5148231;27;20060;-71
2022/07/25 07:55:47;;;;;;;18.85;15.65;;;27.40;99.90;;;;;;5149541;27;20117;-70
2022/07/25 07:58:21;;;;;;;17.42;15.63;;;27.20;99.90;;;;;;5146758;27;20411;-71
2022/07/25 08:00:58;;;;;;;16.70;14.90;;;27.00;99.90;;;;;;5146565;27;20074;-71
2022/07/25 08:03:23;;;;;;;20.08;16.67;;;26.80;99.90;;;;;;5149219;27;20038;-71
2022/07/25 08:05:50;;;;;;;18.60;16.70;;;26.60;99.90;;;;;;5138739;27;20445;-71
2022/07/25 08:08:16;;;;;;;15.82;14.30;;;26.50;99.90;;;;;;5139134;27;20372;-72
2022/07/25 08:10:44;;;;;;;16.80;15.10;;;26.50;99.90;;;;;;5143557;27;20488;-69
2022/07/25 08:13:21;;;;;;;20.17;17.02;;;26.60;99.90;;;;;;5143392;27;20039;-71
2022/07/25 08:15:50;;;;;;;19.05;17.15;;;26.70;99.90;;;;;;5144870;27;20278;-70
2022/07/25 08:18:16;;;;;;;19.02;17.05;;;26.60;99.90;;;;;;5150506;27;20133;-71
2022/07/25 08:20:41;;;;;;;21.85;16.20;;;26.70;99.90;;;;;;5144825;27;20043;-70
2022/07/25 08:23:09;;;;;;;20.17;18.02;;;26.90;99.90;;;;;;5147418;27;20035;-70
2022/07/25 08:25:36;;;;;;;20.77;17.33;;;27.20;99.90;;;;;;5149202;27;20830;-70
2022/07/25 08:28:02;;;;;;;19.00;15.70;;;27.30;99.90;;;;;;5125727;27;20126;-71
2022/07/25 08:30:28;;;;;;;23.98;15.90;;;27.30;99.90;;;;;;5127754;27;20053;-71
2022/07/25 08:32:56;;;;;;;17.95;16.05;;;27.20;99.90;;;;;;5127737;27;20051;-70
2022/07/25 08:35:23;;;;;;;16.38;14.68;;;27.00;99.90;;;;;;5119947;27;20077;-71
2022/07/25 08:37:50;;;;;;;16.70;13.48;;;26.80;99.90;;;;;;5111365;27;20112;-71
2022/07/25 08:40:17;;;;;;;15.60;14.18;;;26.80;99.90;;;;;;5111584;27;20778;-70
2022/07/25 08:42:43;;;;;;;16.10;14.27;;;26.90;99.90;;;;;;5118446;27;20434;-70
2022/07/25 08:45:18;;;;;;;15.60;13.93;;;26.80;99.90;;;;;;5129053;27;20043;-71
2022/07/25 08:47:46;;;;;;;15.10;13.50;;;26.70;99.90;;;;;;5120864;27;20113;-70
2022/07/25 08:50:14;;;;;;;18.65;13.63;;;26.60;99.90;;;;;;5131877;27;20037;-68
2022/07/25 08:52:42;;;;;;;13.15;11.85;;;26.60;99.90;;;;;;5131870;27;20091;-67
2022/07/25 08:55:12;;;;;;;16.63;14.52;;;26.50;99.90;;;;;;5134048;27;20413;-66
2022/07/25 08:57:40;;;;;;;14.93;13.25;;;26.60;99.90;;;;;;5138123;27;20230;-67
2022/07/25 09:00:07;;;;;;;15.40;13.57;;;26.40;99.90;;;;;;5132832;27;20457;-66
2022/07/25 09:02:33;;;;;;;19.52;13.43;;;26.40;99.90;;;;;;5135600;27;20035;-66
2022/07/25 09:04:59;;;;;;;14.27;12.82;;;26.40;99.90;;;;;;5130619;27;20111;-66
2022/07/25 09:07:34;;;;;;;16.10;11.95;;;26.40;99.90;;;;;;5149339;27;20070;-66
2022/07/25 09:10:20;;;;;;;11.80;10.70;;;26.30;99.90;;;;;;5137294;27;20047;-66
2022/07/25 09:12:57;;;;;;;12.18;10.85;;;26.30;99.90;;;;;;5139651;27;20508;-66
2022/07/25 09:15:30;;;;;;;16.25;11.30;;;26.20;99.90;;;;;;5136060;27;20079;-65
2022/07/25 09:18:01;;;;;;;11.90;10.73;;;26.20;99.90;;;;;;5146020;27;20030;-66
2022/07/25 09:20:57;;;;;;;13.80;10.57;;;26.20;99.90;;;;;;5137197;27;20058;-67
2022/07/25 09:23:31;;;;;;;12.55;11.02;;;26.10;99.90;;;;;;5115494;27;20066;-67
2022/07/25 09:26:11;;;;;;;15.27;10.93;;;26.10;99.90;;;;;;5141523;27;20149;-67
2022/07/25 09:28:46;;;;;;;12.07;9.48;;;26.00;99.90;;;;;;5137388;27;20452;-68
2022/07/25 09:31:13;;;;;;;14.70;9.60;;;26.00;99.90;;;;;;5147283;27;20598;-67
2022/07/25 09:33:50;;;;;;;10.05;9.10;;;25.90;99.90;;;;;;5130629;27;20061;-67
2022/07/25 09:36:16;;;;;;;;;;;25.90;99.90;;;;;;5135558;27;20050;-67
2022/07/25 09:38:51;;;;;;;12.23;11.02;;;25.80;99.90;;;;;;5150955;27;20371;-67
2022/07/25 09:41:16;;;;;;;12.88;11.38;;;25.80;99.90;;;;;;5134071;27;20039;-67
2022/07/25 09:43:43;;;;;;;14.82;10.15;;;25.80;99.90;;;;;;5154055;27;20034;-67
2022/07/25 09:46:10;;;;;;;11.68;10.48;;;25.80;99.90;;;;;;5146421;27;20038;-67
2022/07/25 09:48:38;;;;;;;11.98;10.88;;;25.90;99.90;;;;;;5147123;27;20152;-67
2022/07/25 09:51:05;;;;;;;11.05;9.68;;;25.90;99.90;;;;;;5149587;27;20046;-67
2022/07/25 09:53:32;;;;;;;14.55;11.18;;;25.90;99.90;;;;;;5128580;27;20054;-68
2022/07/25 09:55:58;;;;;;;11.15;9.93;;;26.00;99.90;;;;;;5130334;27;20412;-67
2022/07/25 09:58:24;;;;;;;11.25;10.15;;;25.90;99.90;;;;;;5150515;27;20054;-68
2022/07/25 10:00:52;;;;;;;10.57;9.33;;;26.00;99.90;;;;;;5142112;27;20492;-67
2022/07/25 10:03:46;;;;;;;11.13;10.15;;;26.10;99.90;;;;;;5151007;27;20050;-67
2022/07/25 10:06:34;;;;;;;8.93;7.93;;;26.00;99.90;;;;;;5154104;27;20650;-67
2022/07/25 10:08:59;;;;;;;11.93;8.43;;;26.10;99.90;;;;;;5126391;27;20050;-67
2022/07/25 10:11:28;;;;;;;9.75;8.75;;;26.20;99.90;;;;;;5149187;27;20038;-67
2022/07/25 10:13:55;;;;;;;9.30;8.40;;;26.30;99.90;;;;;;5147313;27;20507;-67
2022/07/25 10:16:23;;;;;;;8.20;7.22;;;26.30;99.90;;;;;;5128854;27;20051;-67
2022/07/25 10:18:58;;;;;;;9.27;6.07;;;26.20;99.90;;;;;;5139254;27;20039;-67
2022/07/25 10:21:25;;;;;;;7.75;6.25;;;26.20;99.90;;;;;;5153462;27;20091;-67
2022/07/25 10:24:06;;;;;;;9.00;5.88;;;26.10;99.90;;;;;;5132315;27;20165;-67
2022/07/25 10:26:35;;;;;;;4.93;4.43;;;26.00;95.10;;;;;;5138490;27;20407;-67
2022/07/25 10:29:10;;;;;;;9.25;4.65;;;25.80;99.90;;;;;;5126177;27;20036;-67
2022/07/25 10:31:40;;;;;;;4.47;4.07;;;25.70;99.90;;;;;;5120897;27;20072;-66
2022/07/25 10:34:08;;;;;;;5.10;4.32;;;25.70;99.90;;;;;;5142295;27;20111;-67
2022/07/25 10:36:41;;;;;;;5.93;3.75;;;25.60;99.90;;;;;;5128466;27;20058;-67
2022/07/25 10:39:10;;;;;;;5.53;4.20;;;25.80;99.90;;;;;;5134543;27;20038;-67
2022/07/25 10:41:40;;;;;;;6.75;4.53;;;26.10;99.90;;;;;;5144794;27;20039;-67
2022/07/25 10:44:15;;;;;;;4.90;4.47;;;26.30;99.90;;;;;;5136973;27;20047;-67
2022/07/25 10:46:43;;;;;;;5.75;4.30;;;26.40;98.60;;;;;;5126135;27;20544;-67
2022/07/25 10:49:25;;;;;;;8.60;4.75;;;26.40;97.70;;;;;;5112884;28;20047;-67
2022/07/25 10:51:55;;;;;;;4.90;4.32;;;26.60;97.60;;;;;;5144381;27;20117;-67
2022/07/25 10:54:21;;;;;;;4.38;3.97;;;26.60;96.90;;;;;;5147470;27;20095;-67
2022/07/25 10:56:53;;;;;;;3.60;3.22;;;26.40;98.60;;;;;;5121926;27;20134;-68
2022/07/25 10:59:38;;;;;;;3.90;3.50;;;26.40;98.70;;;;;;5151249;27;20096;-67
2022/07/25 11:02:07;;;;;;;3.92;3.20;;;26.10;99.50;;;;;;5138854;27;20799;-67
2022/07/25 11:04:33;;;;;;;3.50;3.20;;;26.00;99.90;;;;;;5146278;27;20054;-67
2022/07/25 11:07:18;;;;;;;3.22;2.92;;;25.90;99.90;;;;;;5136876;27;20137;-67
2022/07/25 11:09:58;;;;;;;5.68;2.67;;;25.90;99.90;;;;;;5127488;27;20046;-67
2022/07/25 11:12:24;;;;;;;3.42;3.13;;;25.90;99.90;;;;;;5146248;27;20114;-67
2022/07/25 11:14:50;;;;;;;4.25;2.85;;;25.90;99.90;;;;;;5129762;27;20558;-67
2022/07/25 11:17:21;;;;;;;4.70;2.60;;;25.90;99.90;;;;;;5142982;27;20047;-68
2022/07/25 11:20:15;;;;;;;3.03;2.63;;;25.90;99.90;;;;;;5145843;27;20050;-67
2022/07/25 11:22:40;;;;;;;6.40;2.35;;;25.80;99.90;;;;;;5142736;27;20058;-67
2022/07/25 11:25:13;;;;;;;2.92;1.85;;;25.80;99.90;;;;;;5141092;27;20050;-67
2022/07/25 11:27:39;;;;;;;3.17;2.35;;;25.70;99.90;;;;;;5132207;27;20527;-67
2022/07/25 11:30:15;;;;;;;3.45;1.77;;;25.60;99.90;;;;;;5152652;27;20058;-67
2022/07/25 11:32:45;;;;;;;2.43;1.93;;;25.50;99.90;;;;;;5142230;27;20095;-67
2022/07/25 11:35:13;;;;;;;8.45;2.95;;;25.40;99.90;;;;;;5147817;27;20075;-68
2022/07/25 11:37:42;;;;;;;3.67;2.58;;;25.30;99.90;;;;;;5147837;27;20354;-68
2022/07/25 11:40:09;;;;;;;8.90;2.72;;;25.30;99.90;;;;;;5143018;27;20054;-68
2022/07/25 11:42:52;;;;;;;8.85;3.20;;;25.40;99.90;;;;;;5125633;27;20455;-68
2022/07/25 11:45:18;;;;;;;10.07;3.97;;;25.70;99.90;;;;;;5131181;27;20039;-68
2022/07/25 11:47:49;;;;;;;8.55;3.75;;;26.00;99.90;;;;;;5107525;27;20051;-69
2022/07/25 11:50:15;;;;;;;8.50;3.47;;;25.90;99.90;;;;;;5129145;27;20067;-69
2022/07/25 11:52:42;;;;;;;5.85;3.97;;;25.80;99.90;;;;;;5148715;27;20085;-68
2022/07/25 11:55:15;;;;;;;10.18;4.72;;;25.60;99.90;;;;;;5117339;27;20054;-68
2022/07/25 11:57:45;;;;;;;8.45;4.30;;;25.50;99.90;;;;;;5117746;27;20059;-68
2022/07/25 12:00:19;;;;;;;7.28;4.30;;;25.50;99.90;;;;;;5116710;27;20403;-68
2022/07/25 12:02:46;;;;;;;4.03;3.55;;;25.60;99.90;;;;;;5141699;27;20407;-69
2022/07/25 12:05:15;;;;;;;6.18;4.15;;;25.50;99.90;;;;;;5122796;27;20488;-68
2022/07/25 12:07:45;;;;;;;5.95;4.25;;;25.40;99.90;;;;;;5123055;27;20449;-69
2022/07/25 12:10:20;;;;;;;8.60;4.90;;;25.50;99.90;;;;;;5142455;27;20130;-68
2022/07/25 12:12:48;;;;;;;5.78;5.22;;;25.60;99.90;;;;;;5137195;27;20133;-68
2022/07/25 12:15:20;;;;;;;9.52;5.40;;;25.70;99.90;;;;;;5112952;27;20121;-67
2022/07/25 12:17:46;;;;;;;10.85;6.03;;;25.60;99.90;;;;;;5139867;27;20042;-68
2022/07/25 12:20:18;;;;;;;11.65;5.32;;;25.60;99.90;;;;;;5121063;27;20042;-69
2022/07/25 12:22:45;;;;;;;17.42;6.88;;;25.50;99.90;;;;;;5120766;27;20051;-68
2022/07/25 12:25:11;;;;;;;11.23;6.28;;;25.60;99.90;;;;;;5129568;27;20050;-67
2022/07/25 12:27:37;;;;;;;15.48;7.15;;;25.70;99.90;;;;;;5128164;27;20072;-68
2022/07/25 12:30:05;;;;;;;11.20;5.20;;;25.90;99.90;;;;;;5137405;27;20491;-68
2022/07/25 12:32:31;;;;;;;;;;;26.00;99.90;;;;;;5127314;27;20038;-68
2022/07/25 12:34:57;;;;;;;9.88;6.32;;;25.90;99.90;;;;;;5140440;27;19945;-68